Aviation Digital Data Service (ADDS)

Output produced by TAFs form (2347 UTC 18 July 2018)
found at http://www.aviationweather.gov/adds/tafs/
 
RJAA 182330Z 22004KT 160V260 9999 FEW020 30/26 Q1011 NOSIG RMK 1CU020 A2987
TAF RJAA 182306Z 1900/2006 18006KT 9999 FEW025